Time;durP1;ratioP1;P1;durP2;ratioP2;P2;SDS_P1;SDS_P2;PMS_P1;PMS_P2;Temp;Humidity;BMP_temperature;BMP_pressure;BME280_temperature;BME280_humidity;BME280_pressure;Samples;Min_cycle;Max_cycle;Signal;HPM_P1;HPM_P2
2022/01/01 00:01:35;;;;;;;10.55;8.65;;;;;;;12.91;53.42;101430.53;5053127;28;20408;-68
2022/01/01 00:04:02;;;;;;;10.38;8.48;;;;;;;12.94;53.63;101435.59;5053050;28;20470;-68
2022/01/01 00:09:14;;;;;;;10.88;9.23;;;;;;;12.90;53.67;101418.22;5052629;28;20439;-69
2022/01/01 00:11:42;;;;;;;9.13;7.63;;;;;;;12.71;54.03;101420.66;5052255;28;20408;-69
2022/01/01 00:14:09;;;;;;;7.60;6.80;;;;;;;12.56;54.53;101420.91;5053108;28;20444;-68
2022/01/01 00:16:36;;;;;;;6.80;6.10;;;;;;;12.57;54.63;101430.59;5052713;28;20428;-69
2022/01/01 00:19:03;;;;;;;7.03;5.45;;;;;;;12.43;54.92;101430.84;5052512;28;20420;-70
2022/01/01 00:21:32;;;;;;;4.90;4.22;;;;;;;12.55;54.87;101435.19;5052679;28;20484;-69
2022/01/01 00:23:58;;;;;;;4.93;4.43;;;;;;;12.54;54.68;101438.81;5034533;28;20488;-69
2022/01/01 00:26:25;;;;;;;6.93;4.32;;;;;;;12.66;54.57;101441.47;5052353;28;20423;-69
2022/01/01 00:28:52;;;;;;;5.37;4.40;;;;;;;12.61;54.48;101439.16;5052246;28;21008;-69
2022/01/01 00:31:19;;;;;;;4.90;4.40;;;;;;;12.71;54.27;101437.47;5052212;28;20412;-68
2022/01/01 00:33:46;;;;;;;6.15;4.97;;;;;;;12.63;54.58;101432.78;5052584;28;20493;-69
2022/01/01 00:36:13;;;;;;;6.10;5.07;;;;;;;12.83;53.94;101438.28;5052152;28;20928;-69
2022/01/01 00:38:41;;;;;;;6.93;5.68;;;;;;;12.85;53.99;101446.97;5052433;28;20440;-70
2022/01/01 00:41:09;;;;;;;6.88;5.47;;;;;;;12.86;54.12;101440.69;5052455;28;20441;-69
2022/01/01 00:43:36;;;;;;;6.57;5.85;;;;;;;12.80;54.04;101441.19;5052416;28;20418;-69
2022/01/01 00:46:03;;;;;;;7.32;6.15;;;;;;;12.71;54.31;101439.25;5034419;28;20512;-69
2022/01/01 00:48:30;;;;;;;6.95;5.82;;;;;;;12.67;54.58;101443.97;5030937;28;20769;-70
2022/01/01 00:50:57;;;;;;;6.63;5.90;;;;;;;12.73;54.51;101442.66;5032359;28;20513;-69
2022/01/01 00:53:24;;;;;;;6.45;5.75;;;;;;;12.82;54.23;101453.38;5032341;28;20422;-70
2022/01/01 00:55:53;;;;;;;6.00;5.28;;;;;;;12.87;53.94;101452.16;5032259;28;20417;-69
2022/01/01 00:58:20;;;;;;;5.03;4.53;;;;;;;12.90;53.88;101455.44;5032155;28;20441;-68
2022/01/01 01:00:47;;;;;;;5.85;5.25;;;;;;;12.94;54.00;101461.34;5031793;28;20418;-68
2022/01/01 01:03:15;;;;;;;7.15;5.18;;;;;;;12.91;53.91;101462.44;5031472;28;20912;-69
2022/01/01 01:05:43;;;;;;;7.67;6.07;;;;;;;12.90;54.06;101460.75;5030889;28;20606;-69
2022/01/01 01:08:12;;;;;;;6.63;5.60;;;;;;;12.83;53.93;101459.53;5032056;28;20453;-69
2022/01/01 01:10:39;;;;;;;6.47;5.78;;;;;;;12.80;54.31;101460.66;5031729;28;20418;-69
2022/01/01 01:13:08;;;;;;;6.65;5.40;;;;;;;12.76;54.28;101450.38;5031657;28;20926;-69
2022/01/01 01:15:36;;;;;;;5.88;5.28;;;;;;;12.74;54.26;101455.81;5030495;28;20410;-68
2022/01/01 01:18:05;;;;;;;5.38;4.88;;;;;;;12.78;54.30;101451.13;5031817;28;20518;-69
2022/01/01 01:20:32;;;;;;;5.80;5.20;;;;;;;12.90;53.77;101451.94;5031888;28;20490;-69
2022/01/01 01:22:59;;;;;;;5.40;4.90;;;;;;;12.82;53.98;101448.06;5031543;28;20418;-69
2022/01/01 01:25:29;;;;;;;5.50;4.63;;;;;;;12.68;54.34;101443.03;5031804;28;20503;-69
2022/01/01 01:28:05;;;;;;;5.57;4.90;;;;;;;12.66;54.60;101438.81;5031271;28;20410;-68
2022/01/01 01:30:34;;;;;;;5.55;4.60;;;;;;;12.69;54.60;101438.53;5031335;28;20425;-69
2022/01/01 01:33:01;;;;;;;6.45;5.05;;;;;;;12.72;54.61;101430.34;5031554;28;20410;-69
2022/01/01 01:35:28;;;;;;;5.90;5.25;;;;;;;12.79;54.28;101435.03;5031583;28;20426;-69
2022/01/01 01:37:55;;;;;;;5.00;4.50;;;;;;;12.81;54.15;101426.91;5031359;28;20878;-69
2022/01/01 01:40:22;;;;;;;4.97;4.47;;;;;;;12.89;54.20;101429.78;5030949;28;20454;-68
2022/01/01 01:42:49;;;;;;;4.53;4.00;;;;;;;12.90;53.95;101423.53;5031060;28;20421;-69
2022/01/01 01:45:18;;;;;;;4.22;3.83;;;;;;;12.95;53.95;101423.97;5030975;28;20453;-69
2022/01/01 01:47:48;;;;;;;5.03;3.70;;;;;;;12.97;53.98;101424.69;5037628;28;20444;-69
2022/01/01 01:50:17;;;;;;;5.63;4.30;;;;;;;13.01;53.69;101428.78;5051078;28;20775;-69
2022/01/01 01:52:48;;;;;;;4.50;4.10;;;;;;;13.05;53.92;101425.91;5051116;28;20412;-69
2022/01/01 01:55:15;;;;;;;5.63;3.83;;;;;;;13.13;53.69;101431.44;5050380;28;20408;-70
2022/01/01 01:57:43;;;;;;;4.50;3.60;;;;;;;13.13;53.46;101421.63;5050546;28;20519;-68
2022/01/01 02:00:25;;;;;;;4.53;3.80;;;;;;;13.24;53.35;101412.78;5050752;28;20496;-68
2022/01/01 02:02:53;;;;;;;4.50;3.60;;;;;;;13.32;53.15;101407.69;5050725;28;20420;-69
2022/01/01 02:05:21;;;;;;;4.00;3.22;;;;;;;13.29;53.33;101402.63;5050817;28;20499;-68
2022/01/01 02:07:50;;;;;;;5.18;3.38;;;;;;;13.38;53.26;101408.97;5050893;28;20439;-69
2022/01/01 02:10:17;;;;;;;4.15;3.75;;;;;;;13.48;52.98;101409.88;5032888;28;20409;-70
2022/01/01 02:12:50;;;;;;;4.75;3.70;;;;;;;13.37;53.04;101405.47;5050392;28;20500;-69
2022/01/01 02:15:38;;;;;;;4.40;3.60;;;;;;;13.46;52.88;101397.69;5049167;28;20952;-70
2022/01/01 02:18:07;;;;;;;3.57;3.20;;;;;;;13.55;52.81;101386.28;5050451;28;20433;-69
2022/01/01 02:20:35;;;;;;;4.53;3.80;;;;;;;13.59;52.49;101372.56;5050121;28;20494;-68
2022/01/01 02:23:03;;;;;;;3.92;3.53;;;;;;;13.51;52.69;101358.22;5050124;28;20448;-68
2022/01/01 02:25:31;;;;;;;3.58;3.13;;;;;;;13.51;52.86;101358.22;5050186;28;20412;-69
2022/01/01 02:27:58;;;;;;;3.97;3.58;;;;;;;13.66;52.37;101366.72;5050004;28;20507;-68
2022/01/01 02:30:27;;;;;;;4.15;3.40;;;;;;;13.56;52.76;101364.81;5049973;28;20496;-69
2022/01/01 02:32:55;;;;;;;3.92;3.53;;;;;;;13.54;53.05;101352.63;5050224;28;20419;-70
2022/01/01 02:35:22;;;;;;;4.15;3.33;;;;;;;13.58;52.89;101360.25;5050026;28;20501;-70
2022/01/01 02:37:50;;;;;;;4.13;3.30;;;;;;;13.60;52.88;101347.66;5050235;28;20432;-70
2022/01/01 02:40:17;;;;;;;4.53;3.80;;;;;;;13.57;52.93;101339.06;5050057;28;20491;-70
2022/01/01 02:42:45;;;;;;;5.03;3.60;;;;;;;13.57;53.07;101342.56;5050057;28;20412;-69
2022/01/01 02:45:14;;;;;;;5.15;4.00;;;;;;;13.61;52.88;101330.69;5049806;28;20772;-69
2022/01/01 02:47:42;;;;;;;4.97;3.92;;;;;;;13.55;52.91;101333.88;5064853;28;20420;-70
2022/01/01 02:50:10;;;;;;;5.65;4.60;;;;;;;13.59;53.17;101329.97;5049675;28;20503;-70
2022/01/01 02:52:37;;;;;;;4.10;3.70;;;;;;;13.60;52.77;101320.16;5049472;28;20955;-70
2022/01/01 02:55:08;;;;;;;5.13;4.40;;;;;;;13.76;52.26;101331.16;5049446;28;20412;-69
2022/01/01 02:57:35;;;;;;;4.65;4.22;;;;;;;13.77;52.29;101338.19;5049759;28;20519;-69
2022/01/01 03:00:02;;;;;;;4.45;3.90;;;;;;;13.83;52.49;101342.16;5049672;28;20783;-69
2022/01/01 03:02:29;;;;;;;6.00;4.65;;;;;;;13.88;52.15;101345.25;5049760;28;20413;-69
2022/01/01 03:04:56;;;;;;;6.30;4.90;;;;;;;13.87;52.19;101342.72;5049630;28;20416;-68
2022/01/01 03:07:23;;;;;;;5.20;4.47;;;;;;;13.89;51.93;101338.09;5049725;28;20830;-69
2022/01/01 03:09:50;;;;;;;6.03;4.78;;;;;;;13.90;52.16;101334.47;5049281;28;20933;-69
2022/01/01 03:12:18;;;;;;;6.90;5.75;;;;;;;13.93;51.90;101331.53;5049112;28;20409;-69
2022/01/01 03:14:45;;;;;;;5.95;4.38;;;;;;;13.92;51.69;101337.84;5049512;28;21024;-70
2022/01/01 03:17:12;;;;;;;5.90;4.70;;;;;;;14.03;51.60;101337.75;5049364;28;20427;-70
2022/01/01 03:19:39;;;;;;;5.30;4.10;;;;;;;14.09;51.53;101339.88;5049279;28;20783;-70
2022/01/01 03:22:07;;;;;;;4.55;3.70;;;;;;;14.25;51.00;101350.00;5049224;28;20439;-68
2022/01/01 03:24:34;;;;;;;5.00;3.85;;;;;;;14.25;50.88;101341.19;5049256;28;20491;-69
2022/01/01 03:27:02;;;;;;;7.47;5.97;;;;;;;14.36;50.68;101341.91;5048096;28;20495;-69
2022/01/01 03:29:32;;;;;;;6.15;4.90;;;;;;;14.40;50.78;101339.84;5048908;28;21023;-69
2022/01/01 03:31:59;;;;;;;4.47;3.88;;;;;;;14.41;50.77;101347.66;5049456;28;20462;-69
2022/01/01 03:34:26;;;;;;;4.93;3.97;;;;;;;14.25;50.85;101342.03;5049103;28;20491;-69
2022/01/01 03:36:54;;;;;;;4.15;3.50;;;;;;;14.17;51.30;101344.53;5049098;28;20503;-70
2022/01/01 03:39:22;;;;;;;3.90;3.47;;;;;;;14.29;51.13;101337.25;5049064;28;20848;-69
2022/01/01 03:41:49;;;;;;;4.18;3.55;;;;;;;14.34;50.84;101343.03;5048983;28;20838;-69
2022/01/01 03:44:17;;;;;;;5.25;4.75;;;;;;;14.37;51.01;101342.75;5031457;28;20540;-69
2022/01/01 03:46:45;;;;;;;6.63;5.43;;;;;;;14.36;50.95;101335.75;5049099;28;20993;-69
2022/01/01 03:49:12;;;;;;;4.30;3.90;;;;;;;14.35;50.83;101339.38;5049274;28;20499;-69
2022/01/01 03:51:39;;;;;;;4.50;4.00;;;;;;;14.27;51.08;101339.22;5048865;28;20409;-69
2022/01/01 03:54:06;;;;;;;3.92;3.53;;;;;;;14.18;51.52;101336.41;5048929;28;20810;-69
2022/01/01 03:56:36;;;;;;;4.53;4.13;;;;;;;14.11;51.82;101340.59;5048878;28;20865;-68
2022/01/01 03:59:03;;;;;;;4.35;3.85;;;;;;;14.26;51.55;101334.88;5048771;28;20524;-68
2022/01/01 04:01:30;;;;;;;4.00;3.60;;;;;;;14.16;51.44;101338.34;5049281;28;20496;-69
2022/01/01 04:03:59;;;;;;;4.60;3.50;;;;;;;14.21;51.61;101341.47;5048711;28;20466;-69
2022/01/01 04:06:26;;;;;;;66.35;56.58;;;;;;;14.10;51.54;101336.22;5048795;28;20468;-68
2022/01/01 04:08:53;;;;;;;22.83;18.30;;;;;;;14.18;51.58;101336.41;5048948;28;20419;-68
2022/01/01 04:11:21;;;;;;;7.50;6.22;;;;;;;14.09;51.96;101329.22;5048726;28;20420;-68
2022/01/01 04:13:48;;;;;;;7.05;5.68;;;;;;;14.11;51.82;101345.06;5048650;28;20444;-69
2022/01/01 04:16:16;;;;;;;6.28;5.68;;;;;;;14.10;51.81;101348.72;5048612;28;20496;-69
2022/01/01 04:18:45;;;;;;;6.30;5.70;;;;;;;14.19;51.71;101347.88;5048597;28;20462;-69
2022/01/01 04:21:15;;;;;;;7.35;5.03;;;;;;;14.14;51.70;101350.97;5048585;28;20419;-70
2022/01/01 04:23:43;;;;;;;6.88;6.20;;;;;;;14.05;51.75;101353.59;5048646;28;20523;-68
2022/01/01 04:26:10;;;;;;;5.30;4.50;;;;;;;14.01;52.08;101355.69;5048613;28;20412;-69
2022/01/01 04:28:40;;;;;;;5.22;4.07;;;;;;;14.01;52.15;101353.03;5049207;28;20408;-69
2022/01/01 04:31:07;;;;;;;4.07;3.67;;;;;;;14.12;51.71;101349.44;5048395;28;20409;-69
2022/01/01 04:33:34;;;;;;;4.68;3.55;;;;;;;14.05;51.66;101356.25;5048492;28;20413;-68
2022/01/01 04:36:01;;;;;;;3.97;3.65;;;;;;;14.19;51.36;101359.41;5048430;28;20914;-69
2022/01/01 04:38:37;;;;;;;3.80;3.40;;;;;;;14.18;51.84;101352.38;5031320;28;20954;-68
2022/01/01 04:41:04;;;;;;;3.80;3.40;;;;;;;14.15;51.73;101354.47;5052064;28;20780;-70
2022/01/01 04:43:31;;;;;;;4.45;4.05;;;;;;;14.13;51.97;101343.09;5052544;28;20419;-69
2022/01/01 04:45:58;;;;;;;5.38;3.72;;;;;;;14.25;51.69;101342.03;5052397;28;20444;-68
2022/01/01 04:48:25;;;;;;;5.40;4.90;;;;;;;14.34;51.22;101345.72;5052305;28;20408;-69
2022/01/01 04:50:52;;;;;;;4.60;4.20;;;;;;;14.13;51.79;101346.63;5051905;28;20539;-69
2022/01/01 04:53:19;;;;;;;8.02;6.30;;;;;;;13.92;52.65;101362.66;5051908;28;20416;-68
2022/01/01 04:55:49;;;;;;;4.88;4.13;;;;;;;14.11;52.14;101367.25;5052225;28;20426;-69
2022/01/01 04:58:16;;;;;;;4.78;3.92;;;;;;;14.23;51.54;101360.84;5051733;28;20522;-70
2022/01/01 05:00:43;;;;;;;4.32;3.92;;;;;;;14.22;51.62;101358.28;5051690;28;20906;-70
2022/01/01 05:03:10;;;;;;;8.25;7.45;;;;;;;14.17;51.83;101371.16;5051756;28;20763;-70
2022/01/01 05:05:37;;;;;;;4.63;4.23;;;;;;;14.22;51.63;101367.13;5051952;28;20474;-69
2022/01/01 05:08:05;;;;;;;4.78;4.25;;;;;;;14.23;51.69;101371.50;5051705;28;20603;-69
2022/01/01 05:10:32;;;;;;;5.00;4.45;;;;;;;14.37;51.33;101374.75;5051658;28;20913;-69
2022/01/01 05:13:00;;;;;;;8.98;8.38;;;;;;;14.32;51.42;101375.16;5051732;28;20434;-69
2022/01/01 05:15:27;;;;;;;3.90;3.60;;;;;;;14.26;51.36;101374.88;5051755;28;20458;-70
2022/01/01 05:17:54;;;;;;;4.28;3.47;;;;;;;14.17;51.73;101388.03;5051270;28;20503;-70
2022/01/01 05:20:21;;;;;;;8.73;8.00;;;;;;;14.27;51.54;101388.03;5051719;28;20481;-70
2022/01/01 05:22:48;;;;;;;13.38;12.07;;;;;;;14.37;51.40;101388.06;5051642;28;20451;-69
2022/01/01 05:25:15;;;;;;;5.32;4.82;;;;;;;14.30;51.26;101386.94;5051440;28;20416;-70
2022/01/01 05:27:43;;;;;;;5.57;4.13;;;;;;;14.35;51.46;101379.38;5051775;28;20440;-70
2022/01/01 05:30:12;;;;;;;4.70;4.07;;;;;;;14.33;51.43;101387.50;5051091;28;20932;-70
2022/01/01 05:32:39;;;;;;;3.63;3.33;;;;;;;14.39;50.95;101392.28;5051116;28;20993;-69
2022/01/01 05:35:07;;;;;;;3.97;3.58;;;;;;;14.46;50.97;101389.94;5033720;28;20486;-70
2022/01/01 05:37:34;;;;;;;2.80;2.55;;;;;;;14.49;50.79;101396.81;5051357;28;20427;-69
2022/01/01 05:40:01;;;;;;;4.03;3.63;;;;;;;14.46;51.01;101405.94;5050910;28;20515;-70
2022/01/01 05:42:28;;;;;;;4.05;3.50;;;;;;;14.41;51.19;101422.31;5050978;28;20491;-70
2022/01/01 05:44:55;;;;;;;3.55;3.25;;;;;;;14.38;50.97;101432.41;5051223;28;20441;-69
2022/01/01 05:47:23;;;;;;;3.80;3.50;;;;;;;14.42;50.91;101423.19;5050490;28;20424;-69
2022/01/01 05:49:50;;;;;;;4.10;3.70;;;;;;;14.39;51.03;101428.75;5050408;28;20421;-69
2022/01/01 05:52:17;;;;;;;3.95;3.45;;;;;;;14.36;51.15;101423.72;5050933;28;20492;-70
2022/01/01 05:54:44;;;;;;;3.40;3.10;;;;;;;14.28;51.44;101434.22;5051083;28;20421;-69
2022/01/01 05:57:11;;;;;;;2.80;2.60;;;;;;;14.22;51.21;101436.41;5050861;28;20408;-70
2022/01/01 05:59:40;;;;;;;3.30;3.00;;;;;;;14.31;50.99;101437.44;5050625;28;20432;-69
2022/01/01 06:02:07;;;;;;;4.10;3.80;;;;;;;14.32;50.93;101435.63;5050823;28;20417;-69
2022/01/01 06:04:36;;;;;;;5.50;5.00;;;;;;;14.16;51.46;101438.78;5050566;28;20409;-69
2022/01/01 06:07:04;;;;;;;4.38;4.03;;;;;;;14.29;51.04;101436.72;5050680;28;20495;-66
2022/01/01 06:09:31;;;;;;;6.78;6.22;;;;;;;14.28;50.97;101437.72;5050605;28;20409;-71
2022/01/01 06:11:58;;;;;;;7.00;6.50;;;;;;;14.27;50.90;101445.81;5050539;28;20418;-69
2022/01/01 06:14:25;;;;;;;4.00;3.60;;;;;;;14.37;51.01;101444.06;5050335;28;20413;-69
2022/01/01 06:16:52;;;;;;;4.18;3.78;;;;;;;14.45;50.53;101454.03;5050766;28;20416;-70
2022/01/01 06:19:19;;;;;;;5.60;5.10;;;;;;;14.51;50.41;101464.19;5049929;28;21025;-70
2022/01/01 06:21:47;;;;;;;4.75;4.35;;;;;;;14.72;50.62;101462.31;5050080;28;20495;-70
2022/01/01 06:24:14;;;;;;;4.75;4.30;;;;;;;14.83;49.84;101464.88;5050440;28;20800;-68
2022/01/01 06:26:41;;;;;;;8.43;6.60;;;;;;;14.42;50.63;101473.81;5050413;28;20412;-70
2022/01/01 06:29:08;;;;;;;11.57;8.90;;;;;;;14.43;50.67;101472.84;5049869;28;20499;-69
2022/01/01 06:31:35;;;;;;;9.23;6.88;;;;;;;14.42;51.05;101473.81;5050160;28;20418;-69
2022/01/01 06:34:02;;;;;;;5.93;4.95;;;;;;;14.37;50.79;101474.19;5050055;28;20503;-70
2022/01/01 06:36:30;;;;;;;5.95;4.40;;;;;;;14.57;50.61;101485.00;5050594;28;20408;-70
2022/01/01 06:38:58;;;;;;;10.45;7.05;;;;;;;15.35;49.10;101482.53;5065159;28;20944;-70
2022/01/01 06:41:25;;;;;;;9.23;7.32;;;;;;;18.00;43.24;101485.56;5029483;28;20810;-71
2022/01/01 06:43:52;;;;;;;6.93;5.40;;;;;;;18.81;41.01;101480.78;5050363;28;20444;-72
2022/01/01 06:46:19;;;;;;;8.05;6.30;;;;;;;18.03;41.74;101492.44;5049618;28;20429;-70
2022/01/01 06:48:46;;;;;;;11.95;7.03;;;;;;;17.43;42.94;101480.53;5049897;28;20416;-71
2022/01/01 06:51:13;;;;;;;10.63;7.70;;;;;;;17.32;43.68;101491.50;5049656;28;20793;-71
2022/01/01 06:53:40;;;;;;;10.60;7.55;;;;;;;17.28;43.31;101494.63;5049611;28;20500;-73
2022/01/01 06:56:09;;;;;;;7.38;6.22;;;;;;;17.11;43.70;101491.78;5031657;28;20500;-71
2022/01/01 06:58:37;;;;;;;6.93;5.27;;;;;;;17.00;43.85;101495.50;5049643;28;20949;-70
2022/01/01 07:01:04;;;;;;;5.88;5.10;;;;;;;16.86;44.32;101506.72;5049718;28;20444;-70
2022/01/01 07:03:31;;;;;;;7.05;6.22;;;;;;;16.77;44.62;101504.91;5049302;28;20415;-70
2022/01/01 07:05:58;;;;;;;6.80;5.60;;;;;;;16.69;44.42;101512.84;5049676;28;20520;-71
2022/01/01 07:08:25;;;;;;;7.90;7.10;;;;;;;16.55;44.76;101508.81;5049246;28;20413;-72
2022/01/01 07:10:51;;;;;;;11.30;9.25;;;;;;;16.46;45.28;101507.81;5049475;28;20431;-70
2022/01/01 07:13:20;;;;;;;9.95;7.57;;;;;;;16.36;45.37;101523.06;5049514;28;20495;-71
2022/01/01 07:15:47;;;;;;;8.38;7.15;;;;;;;16.25;45.57;101521.41;5049449;28;20440;-70
2022/01/01 07:18:14;;;;;;;9.13;7.43;;;;;;;16.17;46.09;101514.09;5049429;28;20495;-69
2022/01/01 07:20:41;;;;;;;8.80;7.28;;;;;;;16.13;45.92;101512.72;5049112;28;20433;-69
2022/01/01 07:23:08;;;;;;;7.93;6.68;;;;;;;16.18;46.22;101521.16;5048892;28;20496;-71
2022/01/01 07:25:35;;;;;;;9.48;7.13;;;;;;;15.84;47.22;101538.66;5046788;28;20416;-70
2022/01/01 07:28:02;;;;;;;9.70;6.88;;;;;;;15.73;47.59;101527.09;5048390;28;20503;-72
2022/01/01 07:30:30;;;;;;;9.15;7.82;;;;;;;16.00;46.95;101520.22;5049201;28;20459;-72
2022/01/01 07:32:57;;;;;;;11.00;9.30;;;;;;;16.11;46.95;101513.84;5049287;28;20423;-73
2022/01/01 07:35:24;;;;;;;13.35;10.95;;;;;;;16.08;46.81;101516.78;5049343;28;20495;-71
2022/01/01 07:37:53;;;;;;;11.23;8.80;;;;;;;16.03;47.25;101514.56;5049123;28;20422;-72
2022/01/01 07:40:20;;;;;;;6.57;5.60;;;;;;;16.14;46.67;101505.53;5044334;28;20498;-67
2022/01/01 07:42:48;;;;;;;7.20;6.43;;;;;;;16.20;46.60;101504.97;5036520;28;20413;-72
2022/01/01 07:45:16;;;;;;;6.50;5.80;;;;;;;16.29;46.45;101514.78;5048911;28;20500;-71
2022/01/01 07:47:44;;;;;;;7.07;5.55;;;;;;;16.34;46.07;101514.34;5048833;28;21012;-73
2022/01/01 07:50:11;;;;;;;6.32;4.90;;;;;;;16.61;45.47;101509.06;5048827;28;20795;-72
2022/01/01 07:52:39;;;;;;;8.97;6.33;;;;;;;16.62;45.74;101513.38;5049020;28;20416;-71
2022/01/01 07:55:07;;;;;;;11.65;7.53;;;;;;;16.69;45.15;101510.16;5049278;28;20409;-72
2022/01/01 07:57:34;;;;;;;14.52;11.18;;;;;;;16.66;45.44;101503.25;5048781;28;20412;-73
2022/01/01 08:00:03;;;;;;;11.98;9.40;;;;;;;16.59;45.54;101489.63;5048743;28;20440;-72
2022/01/01 08:02:30;;;;;;;8.20;6.90;;;;;;;16.25;46.26;101491.16;5048661;28;20422;-71
2022/01/01 08:04:58;;;;;;;8.93;7.82;;;;;;;16.37;46.27;101493.50;5030677;28;20499;-72
2022/01/01 08:07:25;;;;;;;9.30;8.35;;;;;;;16.47;45.71;101500.66;5048300;28;20906;-71
2022/01/01 08:09:52;;;;;;;9.10;8.20;;;;;;;16.48;45.90;101503.19;5048580;28;20496;-74
2022/01/01 08:12:19;;;;;;;9.73;8.73;;;;;;;16.48;46.31;101500.50;5048571;28;20499;-70
2022/01/01 08:14:46;;;;;;;10.40;9.30;;;;;;;16.43;47.11;101502.78;5051742;28;20419;-71
2022/01/01 08:17:13;;;;;;;15.07;8.43;;;;;;;16.13;48.44;101514.53;5052483;28;20977;-72
2022/01/01 08:19:40;;;;;;;10.07;8.98;;;;;;;16.16;48.54;101514.25;5067711;28;20509;-70
2022/01/01 08:22:10;;;;;;;14.43;12.00;;;;;;;16.16;48.96;101511.56;5051702;28;20422;-71
2022/01/01 08:24:37;;;;;;;12.10;9.52;;;;;;;16.31;48.87;101520.00;5052291;28;20994;-73
2022/01/01 08:27:04;;;;;;;12.93;11.25;;;;;;;16.48;48.50;101515.72;5052630;28;20435;-72
2022/01/01 08:29:31;;;;;;;21.85;17.38;;;;;;;16.43;48.06;101519.66;5052279;28;20969;-72
2022/01/01 08:31:58;;;;;;;17.10;13.63;;;;;;;16.47;48.22;101525.56;5052278;28;20405;-73
2022/01/01 08:34:25;;;;;;;14.88;10.95;;;;;;;16.23;48.45;101528.72;5052456;28;20500;-72
2022/01/01 08:36:53;;;;;;;12.77;11.32;;;;;;;16.38;47.95;101534.47;5051857;28;20795;-71
2022/01/01 08:39:22;;;;;;;8.77;7.50;;;;;;;16.42;48.40;101541.19;5051895;28;20965;-72
2022/01/01 08:41:49;;;;;;;9.55;8.52;;;;;;;16.49;47.79;101541.47;5032986;28;20493;-71
2022/01/01 08:44:16;;;;;;;9.90;8.63;;;;;;;16.86;47.15;101549.53;5052039;28;20499;-71
2022/01/01 08:46:43;;;;;;;9.15;7.43;;;;;;;17.17;46.26;101552.75;5051956;28;20434;-72
2022/01/01 08:49:11;;;;;;;7.18;5.88;;;;;;;17.46;45.39;101548.19;5052137;28;20506;-72
2022/01/01 08:51:41;;;;;;;5.80;5.20;;;;;;;17.96;44.17;101556.59;5051783;28;20445;-71
2022/01/01 08:54:08;;;;;;;7.70;6.88;;;;;;;18.08;43.99;101559.84;5052014;28;20409;-70
2022/01/01 08:56:36;;;;;;;8.90;7.60;;;;;;;18.79;42.27;101557.97;5051780;28;20535;-72
2022/01/01 08:59:03;;;;;;;7.68;6.93;;;;;;;18.98;41.72;101555.03;5051630;28;20416;-71
2022/01/01 09:01:30;;;;;;;8.00;7.18;;;;;;;19.31;41.58;101555.13;5051312;28;20503;-71
2022/01/01 09:03:59;;;;;;;8.55;7.65;;;;;;;19.71;41.06;101548.19;5051397;28;20503;-71
2022/01/01 09:06:26;;;;;;;10.10;8.30;;;;;;;21.45;37.90;101552.13;5051456;28;20508;-74
2022/01/01 09:08:53;;;;;;;7.63;6.88;;;;;;;22.02;36.63;101557.09;5051753;28;20409;-71
2022/01/01 09:11:20;;;;;;;6.97;6.05;;;;;;;21.60;36.61;101558.44;5051661;28;20507;-69
2022/01/01 09:13:48;;;;;;;7.95;7.15;;;;;;;20.97;38.07;101554.88;5051444;28;20491;-73
2022/01/01 09:16:18;;;;;;;6.97;6.28;;;;;;;20.49;38.51;101565.59;5051443;28;20451;-73
2022/01/01 09:18:48;;;;;;;7.75;5.93;;;;;;;20.34;39.13;101559.25;5051665;28;20484;-72
2022/01/01 09:21:17;;;;;;;8.20;6.30;;;;;;;20.10;39.53;101557.44;5051209;28;20452;-73
2022/01/01 09:23:44;;;;;;;9.63;8.02;;;;;;;20.18;39.73;101565.50;5051376;28;20412;-73
2022/01/01 09:26:11;;;;;;;9.43;7.47;;;;;;;20.35;39.60;101552.84;5049898;28;20416;-73
2022/01/01 09:28:38;;;;;;;9.88;7.80;;;;;;;20.13;40.19;101559.78;5051424;28;20850;-73
2022/01/01 09:31:07;;;;;;;10.90;8.80;;;;;;;20.10;40.24;101558.28;5050977;28;20416;-73
2022/01/01 09:33:34;;;;;;;12.55;9.32;;;;;;;20.07;40.51;101552.38;5050313;28;20508;-72
2022/01/01 09:36:03;;;;;;;8.93;7.97;;;;;;;19.81;40.89;101554.25;5050846;28;20423;-73
2022/01/01 09:38:30;;;;;;;10.95;9.50;;;;;;;19.70;40.74;101553.69;5050377;28;20413;-71
2022/01/01 09:40:58;;;;;;;11.07;9.25;;;;;;;19.53;41.28;101555.53;5044304;28;20993;-72
2022/01/01 09:43:27;;;;;;;9.40;8.15;;;;;;;19.14;41.54;101553.41;5042265;28;20504;-70
2022/01/01 09:45:57;;;;;;;9.27;8.32;;;;;;;19.01;41.80;101553.88;5050956;28;20539;-72
2022/01/01 09:48:26;;;;;;;12.30;9.48;;;;;;;18.95;41.87;101566.09;5050576;28;20438;-72
2022/01/01 09:50:55;;;;;;;9.57;7.75;;;;;;;18.70;42.12;101564.28;5051169;28;20404;-70
2022/01/01 09:53:23;;;;;;;12.23;10.33;;;;;;;18.97;41.97;101569.44;5050446;28;20500;-72
2022/01/01 09:55:51;;;;;;;11.98;9.88;;;;;;;19.22;40.99;101564.16;5050512;28;20408;-72
2022/01/01 09:58:22;;;;;;;15.43;11.80;;;;;;;19.48;40.56;101564.06;5050745;28;20416;-73
2022/01/01 10:00:50;;;;;;;11.55;8.90;;;;;;;19.69;40.82;101560.06;5050375;28;20428;-73
2022/01/01 10:03:17;;;;;;;14.83;10.60;;;;;;;25.00;32.12;101565.09;5050420;28;20416;-71
2022/01/01 10:06:04;;;;;;;8.40;7.50;;;;;;;28.61;26.30;101567.59;5050498;28;20500;-74
2022/01/01 10:08:32;;;;;;;8.80;7.97;;;;;;;30.01;24.31;101555.63;5050140;28;20444;-73
2022/01/01 10:10:59;;;;;;;10.50;9.30;;;;;;;29.94;24.21;101561.19;5050193;28;20933;-73
2022/01/01 10:13:31;;;;;;;9.50;8.57;;;;;;;31.16;22.30;101566.91;5049386;28;20491;-72
2022/01/01 10:15:59;;;;;;;9.55;8.57;;;;;;;33.66;19.56;101552.41;5050028;28;21002;-69
2022/01/01 10:18:28;;;;;;;9.13;8.27;;;;;;;33.07;19.94;101544.06;5050156;28;21010;-71
2022/01/01 10:21:03;;;;;;;7.75;6.95;;;;;;;33.03;19.66;101543.78;5050356;28;20439;-72
2022/01/01 10:23:34;;;;;;;9.95;8.95;;;;;;;34.41;18.38;101546.91;5049988;28;20502;-74
2022/01/01 10:29:12;;;;;;;10.43;9.48;;;;;;;34.35;18.13;101531.47;5050090;28;20791;-74
2022/01/01 10:31:40;;;;;;;8.85;8.05;;;;;;;34.00;18.35;101545.78;5049301;28;20519;-73
2022/01/01 10:34:12;;;;;;;10.77;9.68;;;;;;;33.80;18.46;101541.81;5049852;28;20459;-76
2022/01/01 10:36:39;;;;;;;8.05;7.35;;;;;;;33.26;18.91;101525.38;5049513;28;20420;-73
2022/01/01 10:39:13;;;;;;;8.82;8.02;;;;;;;33.77;18.47;101519.50;5049888;28;20414;-74
2022/01/01 10:41:48;;;;;;;9.25;8.35;;;;;;;33.45;18.76;101531.31;5049528;28;20945;-74
2022/01/01 10:44:17;;;;;;;9.05;8.25;;;;;;;32.98;19.36;101531.91;5050580;28;20921;-75
2022/01/01 10:46:44;;;;;;;9.20;8.35;;;;;;;33.41;18.83;101524.69;5049843;28;20413;-73
2022/01/01 10:49:52;;;;;;;9.20;8.40;;;;;;;34.20;18.12;101523.13;5064932;28;20512;-74
2022/01/01 10:52:24;;;;;;;7.60;6.90;;;;;;;32.52;19.73;101510.19;5008425;28;20418;-72
2022/01/01 10:54:55;;;;;;;8.27;7.13;;;;;;;29.83;22.82;101507.41;5029569;28;20530;-72
2022/01/01 10:57:26;;;;;;;8.53;7.80;;;;;;;31.03;21.82;101526.97;5029479;28;20888;-70
2022/01/01 11:00:06;;;;;;;7.80;7.00;;;;;;;30.94;22.26;101518.34;5044803;28;20816;-71
2022/01/01 11:02:34;;;;;;;8.90;8.07;;;;;;;31.28;21.99;101514.84;5029521;28;20792;-75
2022/01/01 11:05:03;;;;;;;8.52;7.72;;;;;;;30.88;22.46;101523.94;5029575;28;20418;-72
2022/01/01 11:07:30;;;;;;;9.20;8.30;;;;;;;30.59;22.79;101523.06;5029406;28;20509;-72
2022/01/01 11:10:00;;;;;;;9.13;8.32;;;;;;;30.19;23.29;101531.97;5029781;28;20414;-71
2022/01/01 11:12:28;;;;;;;9.10;8.30;;;;;;;29.63;23.90;101526.81;5029294;28;21087;-71
2022/01/01 11:14:57;;;;;;;10.20;9.10;;;;;;;28.78;24.54;101525.06;5029396;28;20497;-71
2022/01/01 11:17:25;;;;;;;11.40;8.95;;;;;;;28.83;24.66;101533.38;5030031;28;20421;-74
2022/01/01 11:19:52;;;;;;;12.00;10.80;;;;;;;27.17;26.54;101511.13;5029368;28;20410;-73
2022/01/01 11:22:19;;;;;;;13.85;11.90;;;;;;;27.61;26.25;101511.28;5029554;28;20418;-66
2022/01/01 11:24:47;;;;;;;10.73;9.40;;;;;;;27.44;26.99;101506.38;5029167;28;20839;-72
2022/01/01 11:27:16;;;;;;;11.35;10.00;;;;;;;26.21;28.19;101506.44;5029277;28;20912;-70
2022/01/01 11:29:50;;;;;;;12.80;11.50;;;;;;;25.54;29.53;101509.16;5029557;28;20425;-75
2022/01/01 11:32:20;;;;;;;11.95;10.80;;;;;;;24.61;30.21;101512.38;5029001;28;20476;-70
2022/01/01 11:34:50;;;;;;;14.70;11.88;;;;;;;24.48;30.96;101507.69;5029292;28;20422;-73